createdAt,value
2023-04-10T00:00:04.134Z,97195.34
2023-04-10T00:02:31.430Z,97199.59
2023-04-10T00:04:59.123Z,97197.56
2023-04-10T00:07:26.484Z,97195.91
2023-04-10T00:09:53.628Z,97193.50
2023-04-10T00:12:20.979Z,97188.88
2023-04-10T00:14:47.874Z,97191.06
2023-04-10T00:17:14.723Z,97189.72
2023-04-10T00:19:41.551Z,97189.72
2023-04-10T00:22:08.385Z,97195.22
2023-04-10T00:24:35.322Z,97191.97
2023-04-10T00:27:02.198Z,97187.69
2023-04-10T00:29:29.085Z,97192.53
2023-04-10T00:31:55.962Z,97193.88
2023-04-10T00:34:22.790Z,97181.31
2023-04-10T00:36:49.662Z,97183.66
2023-04-10T00:39:16.525Z,97171.75
2023-04-10T00:41:43.465Z,97170.00
2023-04-10T00:44:10.400Z,97172.59
2023-04-10T00:46:39.079Z,97165.91
2023-04-10T00:49:06.437Z,97164.00
2023-04-10T00:51:33.782Z,97181.69
2023-04-10T00:54:02.274Z,97177.03
2023-04-10T00:56:32.166Z,97170.19
2023-04-10T00:58:59.091Z,97168.78
2023-04-10T01:01:26.251Z,97162.09
2023-04-10T01:03:54.556Z,97164.97
2023-04-10T01:06:21.596Z,97176.59
2023-04-10T01:09:31.949Z,97171.53
2023-04-10T01:12:12.287Z,97175.50
2023-04-10T01:15:04.089Z,97172.59
2023-04-10T01:17:59.943Z,97177.00
2023-04-10T01:20:31.969Z,97174.25
2023-04-10T01:23:12.610Z,97167.00
2023-04-10T01:25:51.015Z,97171.53
2023-04-10T01:29:01.594Z,97170.69
2023-04-10T01:32:11.874Z,97170.09
2023-04-10T01:34:47.927Z,97163.25
2023-04-10T01:37:24.702Z,97164.31
2023-04-10T01:39:59.650Z,97165.47
2023-04-10T01:42:32.933Z,97163.44
2023-04-10T01:45:01.251Z,97154.53
2023-04-10T01:47:28.828Z,97150.72
2023-04-10T01:49:56.774Z,97149.09
2023-04-10T01:52:24.893Z,97150.75
2023-04-10T01:54:53.280Z,97141.97
2023-04-10T01:57:20.427Z,97138.97
2023-04-10T01:59:47.412Z,97142.94
2023-04-10T02:02:14.323Z,97143.63
2023-04-10T02:04:41.350Z,97137.19
2023-04-10T02:07:23.964Z,97144.75
2023-04-10T02:10:15.568Z,97141.44
2023-04-10T02:12:53.542Z,97146.66
2023-04-10T02:15:23.729Z,97143.66
2023-04-10T02:17:52.289Z,97140.38
2023-04-10T02:20:19.640Z,97143.25
2023-04-10T02:22:47.225Z,97151.34
2023-04-10T02:25:14.939Z,97142.88
2023-04-10T02:27:42.381Z,97156.84
2023-04-10T02:30:09.662Z,97145.88
2023-04-10T02:32:36.934Z,97150.13
2023-04-10T02:35:04.441Z,97149.44
2023-04-10T02:37:31.764Z,97143.81
2023-04-10T02:39:58.597Z,97155.19
2023-04-10T02:42:25.432Z,97143.13
2023-04-10T02:44:52.239Z,97151.88
2023-04-10T02:47:19.145Z,97157.66
2023-04-10T02:49:46.075Z,97154.38
2023-04-10T02:52:13.002Z,97155.72
2023-04-10T02:54:40.336Z,97159.53
2023-04-10T02:57:07.332Z,97158.63
2023-04-10T02:59:34.211Z,97159.53
2023-04-10T03:02:01.162Z,97164.22
2023-04-10T03:04:29.082Z,97170.13
2023-04-10T03:06:56.105Z,97170.25
2023-04-10T03:09:22.912Z,97162.56
2023-04-10T03:11:49.750Z,97164.19
2023-04-10T03:14:17.127Z,97159.00
2023-04-10T03:16:44.233Z,97152.16
2023-04-10T03:19:12.773Z,97149.41
2023-04-10T03:21:39.695Z,97153.78
2023-04-10T03:24:07.134Z,97157.22
2023-04-10T03:26:33.932Z,97145.31
2023-04-10T03:29:00.867Z,97144.63
2023-04-10T03:31:28.079Z,97152.16
2023-04-10T03:33:55.200Z,97145.56
2023-04-10T03:36:22.233Z,97142.31
2023-04-10T03:38:49.162Z,97141.22
2023-04-10T03:41:15.985Z,97142.31
2023-04-10T03:43:42.777Z,97140.25
2023-04-10T03:46:09.644Z,97145.03
2023-04-10T03:48:36.453Z,97146.41
2023-04-10T03:51:03.531Z,97148.06
2023-04-10T03:53:30.422Z,97145.34
2023-04-10T03:55:57.350Z,97140.38
2023-04-10T03:58:24.201Z,97152.84
2023-04-10T04:00:51.566Z,97145.34
2023-04-10T04:03:18.619Z,97141.22
2023-04-10T04:05:45.820Z,97150.38
2023-04-10T04:08:13.998Z,97148.19
2023-04-10T04:10:40.917Z,97145.56
2023-04-10T04:13:07.732Z,97147.53
2023-04-10T04:15:34.635Z,97150.78
2023-04-10T04:18:01.494Z,97158.47
2023-04-10T04:20:28.586Z,97157.66
2023-04-10T04:22:55.540Z,97149.03
2023-04-10T04:25:22.448Z,97148.34
2023-04-10T04:27:49.251Z,97149.97
2023-04-10T04:30:16.254Z,97149.44
2023-04-10T04:32:43.151Z,97151.63
2023-04-10T04:35:10.747Z,97151.63
2023-04-10T04:37:37.600Z,97148.88
2023-04-10T04:40:04.964Z,97157.94
2023-04-10T04:42:31.734Z,97165.59
2023-04-10T04:44:58.545Z,97171.47
2023-04-10T04:47:25.655Z,97178.03
2023-04-10T04:49:52.562Z,97181.75
2023-04-10T04:52:19.392Z,97173.00
2023-04-10T04:54:46.195Z,97172.72
2023-04-10T04:57:13.053Z,97166.41
2023-04-10T04:59:39.850Z,97168.91
2023-04-10T05:02:06.989Z,97170.25
2023-04-10T05:04:33.930Z,97175.97
2023-04-10T05:07:01.005Z,97170.53
2023-04-10T05:09:27.795Z,97173.00
2023-04-10T05:11:54.751Z,97166.97
2023-04-10T05:14:22.253Z,97175.16
2023-04-10T05:16:49.114Z,97174.34
2023-04-10T05:19:16.228Z,97181.19
2023-04-10T05:21:43.353Z,97174.88
2023-04-10T05:24:10.415Z,97166.63
2023-04-10T05:26:37.446Z,97166.06
2023-04-10T05:29:04.815Z,97174.81
2023-04-10T05:31:31.793Z,97174.00
2023-04-10T05:33:58.709Z,97174.50
2023-04-10T05:36:25.605Z,97178.19
2023-04-10T05:38:52.892Z,97180.22
2023-04-10T05:41:20.058Z,97182.38
2023-04-10T05:43:46.879Z,97182.59
2023-04-10T05:46:13.761Z,97187.22
2023-04-10T05:48:40.875Z,97173.59
2023-04-10T05:51:07.962Z,97184.41
2023-04-10T05:53:35.132Z,97178.53
2023-04-10T05:56:04.980Z,97180.28
2023-04-10T05:58:31.865Z,97182.25
2023-04-10T06:00:58.796Z,97186.06
2023-04-10T06:03:27.705Z,97187.00
2023-04-10T06:05:56.069Z,97192.66
2023-04-10T06:08:22.949Z,97189.03
2023-04-10T06:10:49.830Z,97193.56
2023-04-10T06:13:16.712Z,97193.75
2023-04-10T06:15:43.581Z,97190.88
2023-04-10T06:18:10.472Z,97192.69
2023-04-10T06:20:37.291Z,97195.00
2023-04-10T06:23:04.142Z,97193.72
2023-04-10T06:25:31.011Z,97184.13
2023-04-10T06:27:58.102Z,97194.25
2023-04-10T06:30:25.002Z,97190.72
2023-04-10T06:32:51.861Z,97194.53
2023-04-10T06:35:18.771Z,97179.06
2023-04-10T06:37:45.940Z,97180.16
2023-04-10T06:40:16.090Z,97174.41
2023-04-10T06:42:43.242Z,97183.22
2023-04-10T06:45:10.583Z,97180.19
2023-04-10T06:47:37.634Z,97181.47
2023-04-10T06:50:04.951Z,97179.28
2023-04-10T06:52:32.700Z,97171.91
2023-04-10T06:54:59.841Z,97167.44
2023-04-10T06:57:26.707Z,97176.81
2023-04-10T06:59:53.614Z,97178.56
2023-04-10T07:02:20.862Z,97177.34
2023-04-10T07:04:47.776Z,97175.34
2023-04-10T07:07:15.862Z,97170.56
2023-04-10T07:09:42.915Z,97183.56
2023-04-10T07:12:09.740Z,97177.47
2023-04-10T07:14:36.686Z,97172.88
2023-04-10T07:17:03.850Z,97177.78
2023-04-10T07:19:31.325Z,97179.56
2023-04-10T07:21:58.208Z,97169.63
2023-04-10T07:24:25.192Z,97175.97
2023-04-10T07:26:52.097Z,97167.31
2023-04-10T07:29:20.988Z,97173.97
2023-04-10T07:31:48.048Z,97176.56
2023-04-10T07:34:15.067Z,97174.44
2023-04-10T07:36:41.891Z,97175.78
2023-04-10T07:39:08.704Z,97178.03
2023-04-10T07:41:35.881Z,97176.31
2023-04-10T07:44:02.734Z,97181.53
2023-04-10T07:46:29.581Z,97181.84
2023-04-10T07:48:56.652Z,97184.59
2023-04-10T07:51:23.952Z,97176.56
2023-04-10T07:53:50.807Z,97182.69
2023-04-10T07:56:19.504Z,97174.31
2023-04-10T07:58:47.467Z,97174.38
2023-04-10T08:01:15.721Z,97184.25
2023-04-10T08:03:45.620Z,97170.69
2023-04-10T08:06:12.899Z,97164.91
2023-04-10T08:08:42.090Z,97175.41
2023-04-10T08:11:29.783Z,97170.63
2023-04-10T08:14:01.603Z,97167.41
2023-04-10T08:16:36.198Z,97164.22
2023-04-10T08:19:03.768Z,97169.56
2023-04-10T08:21:32.191Z,97163.84
2023-04-10T08:24:01.811Z,97160.34
2023-04-10T08:26:29.395Z,97166.63
2023-04-10T08:28:59.864Z,97163.69
2023-04-10T08:31:29.032Z,97156.06
2023-04-10T08:33:57.277Z,97166.47
2023-04-10T08:36:24.684Z,97160.56
2023-04-10T08:38:51.576Z,97162.81
2023-04-10T08:41:19.960Z,97156.50
2023-04-10T08:43:47.507Z,97166.69
2023-04-10T08:46:15.123Z,97156.91
2023-04-10T08:49:03.284Z,97155.50
2023-04-10T08:51:39.982Z,97162.81
2023-04-10T08:54:11.872Z,97154.88
2023-04-10T08:56:41.757Z,97149.19
2023-04-10T08:59:09.255Z,97143.19
2023-04-10T09:01:36.439Z,97155.22
2023-04-10T09:04:03.603Z,97143.47
2023-04-10T09:06:31.493Z,97151.59
2023-04-10T09:11:52.555Z,97143.03
2023-04-10T09:14:36.460Z,97147.00
2023-04-10T09:17:20.327Z,97147.59
2023-04-10T09:19:52.730Z,97145.66
2023-04-10T09:22:36.343Z,97132.75
2023-04-10T09:25:04.724Z,97131.16
2023-04-10T09:27:37.386Z,97135.44
2023-04-10T09:30:06.478Z,97130.56
2023-04-10T09:32:46.457Z,97139.09
2023-04-10T09:35:16.718Z,97140.25
2023-04-10T09:37:46.619Z,97129.00
2023-04-10T09:40:25.149Z,97118.72
2023-04-10T09:42:53.354Z,97114.88
2023-04-10T09:45:20.730Z,97115.47
2023-04-10T09:48:08.501Z,97117.00
2023-04-10T09:50:40.826Z,97104.69
2023-04-10T09:53:19.255Z,97094.53
2023-04-10T09:55:48.055Z,97103.53
2023-04-10T09:58:16.402Z,97099.00
2023-04-10T10:00:49.240Z,97099.19
2023-04-10T10:03:19.703Z,97107.16
2023-04-10T10:05:52.456Z,97096.19
2023-04-10T10:08:20.001Z,97089.38
2023-04-10T10:10:55.926Z,97089.22
2023-04-10T10:13:41.218Z,97079.63
2023-04-10T10:16:33.743Z,97077.69
2023-04-10T10:19:10.785Z,97070.13
2023-04-10T10:21:39.077Z,97066.34
2023-04-10T10:24:09.457Z,97064.19
2023-04-10T10:26:40.074Z,97055.13
2023-04-10T10:29:11.095Z,97055.25
2023-04-10T10:31:38.825Z,97059.22
2023-04-10T10:34:09.173Z,97065.97
2023-04-10T10:36:37.289Z,97045.63
2023-04-10T10:39:29.750Z,97051.41
2023-04-10T10:42:10.832Z,97041.38
2023-04-10T10:45:11.637Z,97028.81
2023-04-10T10:47:54.379Z,97039.75
2023-04-10T10:50:24.270Z,97024.59
2023-04-10T10:52:54.029Z,97026.91
2023-04-10T10:55:36.428Z,97029.38
2023-04-10T10:58:07.749Z,97019.16
2023-04-10T11:00:52.933Z,97013.06
2023-04-10T11:03:19.815Z,97016.09
2023-04-10T11:05:58.649Z,97008.28
2023-04-10T11:08:42.426Z,97006.47
2023-04-10T11:11:15.769Z,97003.44
2023-04-10T11:13:57.587Z,97006.06
2023-04-10T11:16:44.215Z,96996.34
2023-04-10T11:19:19.027Z,96986.47
2023-04-10T11:22:05.268Z,96981.41
2023-04-10T11:24:57.477Z,96982.56
2023-04-10T11:27:45.837Z,96987.19
2023-04-10T11:30:48.307Z,96983.91
2023-04-10T11:33:19.119Z,96978.94
2023-04-10T11:35:47.029Z,96966.94
2023-04-10T11:38:18.088Z,96982.19
2023-04-10T11:41:04.343Z,96968.78
2023-04-10T11:43:32.142Z,96961.13
2023-04-10T11:46:04.669Z,96957.03
2023-04-10T11:48:32.403Z,96958.81
2023-04-10T11:51:01.696Z,96947.66
2023-04-10T11:53:29.998Z,96935.97
2023-04-10T11:55:56.921Z,96934.72
2023-04-10T11:58:30.481Z,96943.44
2023-04-10T12:00:58.780Z,96933.91
2023-04-10T12:03:37.513Z,96930.38
2023-04-10T12:06:10.362Z,96934.22
2023-04-10T12:08:41.223Z,96928.56
2023-04-10T12:11:10.383Z,96932.53
2023-04-10T12:13:37.900Z,96931.31
2023-04-10T12:16:08.231Z,96923.53
2023-04-10T12:18:35.997Z,96927.22
2023-04-10T12:21:05.536Z,96929.63
2023-04-10T12:23:37.325Z,96917.94
2023-04-10T12:26:14.554Z,96924.16
2023-04-10T12:28:50.796Z,96920.28
2023-04-10T12:31:17.882Z,96920.44
2023-04-10T12:33:47.794Z,96914.34
2023-04-10T12:36:32.154Z,96918.81
2023-04-10T12:39:01.566Z,96904.56
2023-04-10T12:41:37.261Z,96904.13
2023-04-10T12:44:09.608Z,96905.00
2023-04-10T12:46:36.728Z,96908.78
2023-04-10T12:49:18.370Z,96908.97
2023-04-10T12:51:50.530Z,96895.75
2023-04-10T12:54:35.193Z,96896.34
2023-04-10T12:57:04.213Z,96879.50
2023-04-10T12:59:31.657Z,96880.59
2023-04-10T13:01:58.804Z,96881.97
2023-04-10T13:04:26.205Z,96884.91
2023-04-10T13:06:53.356Z,96880.97
2023-04-10T13:09:20.373Z,96866.88
2023-04-10T13:11:48.488Z,96860.25
2023-04-10T13:14:17.013Z,96869.81
2023-04-10T13:16:44.090Z,96865.19
2023-04-10T13:19:11.005Z,96856.56
2023-04-10T13:21:37.838Z,96866.22
2023-04-10T13:24:04.779Z,96856.19
2023-04-10T13:26:31.626Z,96851.69
2023-04-10T13:28:58.468Z,96852.97
2023-04-10T13:31:25.517Z,96838.97
2023-04-10T13:33:52.415Z,96830.44
2023-04-10T13:36:19.350Z,96826.75
2023-04-10T13:38:46.270Z,96820.13
2023-04-10T13:41:13.118Z,96825.88
2023-04-10T13:43:40.226Z,96819.56
2023-04-10T13:46:07.379Z,96818.63
2023-04-10T13:48:40.447Z,96806.38
2023-04-10T13:51:08.297Z,96807.34
2023-04-10T13:53:35.775Z,96793.16
2023-04-10T13:56:02.600Z,96804.34
2023-04-10T13:58:31.914Z,96798.78
2023-04-10T14:00:59.337Z,96797.91
2023-04-10T14:03:26.409Z,96792.63
2023-04-10T14:05:54.349Z,96784.06
2023-04-10T14:08:21.306Z,96782.63
2023-04-10T14:10:51.502Z,96787.31
2023-04-10T14:13:18.821Z,96779.38
2023-04-10T14:15:46.027Z,96779.91
2023-04-10T14:18:13.094Z,96770.34
2023-04-10T14:20:42.350Z,96774.63
2023-04-10T14:23:09.807Z,96765.69
2023-04-10T14:25:36.710Z,96762.69
2023-04-10T14:28:03.563Z,96748.66
2023-04-10T14:30:32.664Z,96747.28
2023-04-10T14:32:59.814Z,96744.22
2023-04-10T14:35:26.875Z,96742.31
2023-04-10T14:37:53.729Z,96742.94
2023-04-10T14:40:20.821Z,96736.63
2023-04-10T14:42:47.623Z,96722.19
2023-04-10T14:45:14.546Z,96730.75
2023-04-10T14:47:41.807Z,96740.31
2023-04-10T14:50:09.109Z,96729.22
2023-04-10T14:52:35.957Z,96733.78
2023-04-10T14:55:02.863Z,96737.22
2023-04-10T14:57:29.769Z,96730.94
2023-04-10T14:59:56.834Z,96720.16
2023-04-10T15:02:24.196Z,96728.50
2023-04-10T15:04:51.201Z,96724.81
2023-04-10T15:07:18.188Z,96719.66
2023-04-10T15:09:46.239Z,96724.25
2023-04-10T15:12:13.071Z,96711.94
2023-04-10T15:14:39.953Z,96707.03
2023-04-10T15:17:06.980Z,96698.03
2023-04-10T15:19:33.846Z,96706.16
2023-04-10T15:22:00.770Z,96689.38
2023-04-10T15:24:29.129Z,96679.31
2023-04-10T15:26:57.848Z,96674.81
2023-04-10T15:29:24.711Z,96679.34
2023-04-10T15:31:51.569Z,96674.81
2023-04-10T15:34:19.036Z,96668.66
2023-04-10T15:36:45.853Z,96677.19
2023-04-10T15:39:12.787Z,96681.19
2023-04-10T15:41:39.587Z,96669.53
2023-04-10T15:44:06.432Z,96685.00
2023-04-10T15:46:34.117Z,96676.16
2023-04-10T15:49:01.407Z,96672.00
2023-04-10T15:51:28.257Z,96667.53
2023-04-10T15:53:55.291Z,96667.78
2023-04-10T15:56:22.368Z,96662.78
2023-04-10T15:58:49.210Z,96659.88
2023-04-10T16:01:16.091Z,96657.56
2023-04-10T16:03:43.187Z,96660.00
2023-04-10T16:06:10.299Z,96665.78
2023-04-10T16:08:37.115Z,96672.72
2023-04-10T16:11:04.089Z,96657.63
2023-04-10T16:13:30.970Z,96659.63
2023-04-10T16:15:57.870Z,96663.03
2023-04-10T16:18:24.851Z,96660.59
2023-04-10T16:20:51.863Z,96645.63
2023-04-10T16:23:19.825Z,96647.00
2023-04-10T16:25:46.640Z,96641.25
2023-04-10T16:28:13.565Z,96650.06
2023-04-10T16:30:40.476Z,96636.31
2023-04-10T16:33:07.360Z,96641.97
2023-04-10T16:35:34.319Z,96638.69
2023-04-10T16:38:01.783Z,96631.09
2023-04-10T16:40:32.376Z,96627.50
2023-04-10T16:43:02.796Z,96637.88
2023-04-10T16:45:29.854Z,96638.03
2023-04-10T16:47:56.813Z,96638.63
2023-04-10T16:50:23.730Z,96629.84
2023-04-10T16:52:50.616Z,96632.00
2023-04-10T16:55:17.634Z,96632.13
2023-04-10T16:57:44.457Z,96630.28
2023-04-10T17:00:11.964Z,96632.03
2023-04-10T17:02:39.570Z,96634.59
2023-04-10T17:05:06.678Z,96634.22
2023-04-10T17:07:34.409Z,96628.53
2023-04-10T17:10:01.263Z,96614.81
2023-04-10T17:12:28.177Z,96617.50
2023-04-10T17:14:55.037Z,96604.81
2023-04-10T17:17:22.002Z,96601.97
2023-04-10T17:19:49.214Z,96602.09
2023-04-10T17:22:16.335Z,96593.50
2023-04-10T17:24:44.402Z,96594.78
2023-04-10T17:27:12.145Z,96586.66
2023-04-10T17:29:39.551Z,96589.91
2023-04-10T17:32:08.685Z,96598.09
2023-04-10T17:34:36.145Z,96584.78
2023-04-10T17:37:03.109Z,96581.97
2023-04-10T17:39:30.059Z,96578.84
2023-04-10T17:41:57.192Z,96574.34
2023-04-10T17:44:24.196Z,96577.47
2023-04-10T17:46:51.114Z,96582.34
2023-04-10T17:49:17.996Z,96574.09
2023-04-10T17:51:44.888Z,96572.44
2023-04-10T17:54:11.776Z,96575.84
2023-04-10T17:56:38.722Z,96572.41
2023-04-10T17:59:05.611Z,96575.38
2023-04-10T18:01:32.524Z,96574.66
2023-04-10T18:04:00.376Z,96580.41
2023-04-10T18:06:27.561Z,96570.50
2023-04-10T18:08:58.184Z,96575.38
2023-04-10T18:11:25.284Z,96569.69
2023-04-10T18:13:52.362Z,96567.06
2023-04-10T18:16:19.281Z,96572.31
2023-04-10T18:18:46.166Z,96575.22
2023-04-10T18:21:13.698Z,96576.78
2023-04-10T18:23:40.666Z,96567.88
2023-04-10T18:26:07.773Z,96568.44
2023-04-10T18:28:35.838Z,96562.25
2023-04-10T18:31:02.778Z,96561.75
2023-04-10T18:33:29.724Z,96558.56
2023-04-10T18:35:59.268Z,96556.81
2023-04-10T18:38:26.765Z,96556.28
2023-04-10T18:40:57.772Z,96567.38
2023-04-10T18:43:25.546Z,96563.94
2023-04-10T18:45:52.544Z,96563.72
2023-04-10T18:48:19.503Z,96564.16
2023-04-10T18:50:46.360Z,96559.81
2023-04-10T18:53:13.186Z,96566.94
2023-04-10T18:55:39.974Z,96580.22
2023-04-10T18:58:06.843Z,96560.69
2023-04-10T19:00:34.247Z,96569.31
2023-04-10T19:03:01.306Z,96574.88
2023-04-10T19:05:32.622Z,96565.84
2023-04-10T19:08:04.728Z,96573.03
2023-04-10T19:10:32.674Z,96569.94
2023-04-10T19:12:59.745Z,96567.81
2023-04-10T19:15:27.450Z,96565.28
2023-04-10T19:17:55.046Z,96563.66
2023-04-10T19:20:50.892Z,96562.31
2023-04-10T19:23:09.648Z,96559.19
2023-04-10T19:25:36.502Z,96548.63
2023-04-10T19:28:03.668Z,96538.34
2023-04-10T19:30:30.639Z,96535.19
2023-04-10T19:32:57.618Z,96523.81
2023-04-10T19:35:24.856Z,96529.16
2023-04-10T19:37:51.683Z,96521.25
2023-04-10T19:40:19.422Z,96521.13
2023-04-10T19:42:46.326Z,96513.16
2023-04-10T19:45:14.943Z,96504.03
2023-04-10T19:47:41.821Z,96501.63
2023-04-10T19:50:09.076Z,96501.28
2023-04-10T19:52:36.102Z,96512.19
2023-04-10T19:55:02.988Z,96509.66
2023-04-10T19:57:29.853Z,96518.25
2023-04-10T19:59:56.772Z,96506.47
2023-04-10T20:02:23.751Z,96507.09
2023-04-10T20:04:50.903Z,96511.34
2023-04-10T20:07:17.721Z,96513.88
2023-04-10T20:09:44.612Z,96512.97
2023-04-10T20:12:11.429Z,96515.84
2023-04-10T20:14:38.510Z,96514.22
2023-04-10T20:17:05.349Z,96513.44
2023-04-10T20:19:32.262Z,96502.53
2023-04-10T20:22:01.540Z,96500.13
2023-04-10T20:24:29.141Z,96508.19
2023-04-10T20:26:57.198Z,96496.47
2023-04-10T20:29:23.999Z,96494.00
2023-04-10T20:31:50.878Z,96498.50
2023-04-10T20:34:17.693Z,96490.19
2023-04-10T20:36:44.582Z,96496.91
2023-04-10T20:39:11.397Z,96499.78
2023-04-10T20:41:38.185Z,96501.78
2023-04-10T20:44:05.017Z,96499.16
2023-04-10T20:46:31.886Z,96494.88
2023-04-10T20:48:59.245Z,96502.22
2023-04-10T20:51:29.920Z,96511.94
2023-04-10T20:53:56.767Z,96508.88
2023-04-10T20:56:32.835Z,96501.22
2023-04-10T20:59:03.609Z,96498.56
2023-04-10T21:01:30.716Z,96501.00
2023-04-10T21:03:58.686Z,96482.53
2023-04-10T21:06:26.517Z,96486.81
2023-04-10T21:08:53.644Z,96478.69
2023-04-10T21:11:22.056Z,96487.00
2023-04-10T21:13:49.313Z,96486.81
2023-04-10T21:16:16.328Z,96494.13
2023-04-10T21:18:43.243Z,96508.72
2023-04-10T21:21:10.538Z,96504.25
2023-04-10T21:23:37.341Z,96499.78
2023-04-10T21:26:04.226Z,96493.31
2023-04-10T21:28:31.087Z,96481.97
2023-04-10T21:30:57.942Z,96484.41
2023-04-10T21:33:24.816Z,96482.97
2023-04-10T21:35:51.721Z,96492.50
2023-04-10T21:38:18.531Z,96491.25
2023-04-10T21:40:55.056Z,96493.50
2023-04-10T21:43:22.345Z,96500.59
2023-04-10T21:45:49.466Z,96493.69
2023-04-10T21:48:16.468Z,96488.22
2023-04-10T21:50:43.428Z,96472.78
2023-04-10T21:53:10.371Z,96472.19
2023-04-10T21:55:37.473Z,96467.56
2023-04-10T21:58:04.836Z,96464.28
2023-04-10T22:00:33.189Z,96462.66
2023-04-10T22:03:00.363Z,96461.84
2023-04-10T22:05:27.597Z,96460.03
2023-04-10T22:07:54.975Z,96453.31
2023-04-10T22:10:21.900Z,96445.41
2023-04-10T22:12:49.133Z,96451.91
2023-04-10T22:15:17.070Z,96444.22
2023-04-10T22:17:43.989Z,96433.88
2023-04-10T22:20:11.209Z,96428.03
2023-04-10T22:22:38.061Z,96435.31
2023-04-10T22:25:05.502Z,96433.69
2023-04-10T22:27:33.404Z,96442.19
2023-04-10T22:30:03.777Z,96425.75
2023-04-10T22:32:32.122Z,96427.59
2023-04-10T22:34:59.958Z,96426.38
2023-04-10T22:37:27.595Z,96426.97
2023-04-10T22:39:56.091Z,96423.94
2023-04-10T22:42:23.663Z,96423.13
2023-04-10T22:44:50.636Z,96418.66
2023-04-10T22:47:17.954Z,96419.88
2023-04-10T22:49:45.260Z,96425.56
2023-04-10T22:52:16.169Z,96420.69
2023-04-10T22:54:43.039Z,96408.97
2023-04-10T22:57:10.351Z,96418.69
2023-04-10T22:59:37.909Z,96424.56
2023-04-10T23:02:04.921Z,96415.44
2023-04-10T23:04:32.056Z,96417.03
2023-04-10T23:06:59.230Z,96413.81
2023-04-10T23:09:26.068Z,96406.50
2023-04-10T23:11:52.897Z,96398.03
2023-04-10T23:14:20.306Z,96402.06
2023-04-10T23:16:47.168Z,96395.59
2023-04-10T23:19:14.148Z,96384.25
2023-04-10T23:21:41.115Z,96368.47
2023-04-10T23:24:08.069Z,96369.69
2023-04-10T23:26:34.970Z,96368.06
2023-04-10T23:29:02.012Z,96364.84
2023-04-10T23:31:28.851Z,96366.03
2023-04-10T23:33:55.776Z,96356.31
2023-04-10T23:36:22.578Z,96359.34
2023-04-10T23:38:49.458Z,96362.78
2023-04-10T23:41:16.314Z,96360.38
2023-04-10T23:43:43.819Z,96358.75
2023-04-10T23:46:10.648Z,96356.50
2023-04-10T23:48:37.520Z,96357.13
2023-04-10T23:51:08.659Z,96347.41
2023-04-10T23:53:35.515Z,96337.28
2023-04-10T23:56:02.326Z,96339.09
2023-04-10T23:58:29.204Z,96338.06
